Chandler, Oklahoma
Current Conditions -  °F | °C
As of 11:55 PM on Tuesday 21 Oct 2014 (Local Time) from KCQB Reporting Station
Scattered Clouds Scattered Clouds  
Wind Chill: 66°   Ceiling: Unl
Heat Index: 66°   Visibility: 10mi
Dew Point: 64°   Wind: 3mph
Humidity: 94%   Direction: 180°S
Pressure: 30.07"   Gusts: NA
Location:  35.7°N, 96.88°W
Report Text: KCQB 220455Z AUTO 18003KT 10SM SCT060 19/18 A3007 RMK AO2
Loading
Personal Weather Stations






























Interactive Weather Map
Tropical Storm Tracking
New forecast layout! Learn more

10-Day Weather Forecast

Advertisements
Track Severe Weather on mobile